Dalby Springs, Texas
Current Conditions -  °F | °C
As of 11:35 PM on Wednesday 17 Dec 2014 (Local Time) from KOSA Reporting Station
Overcast Overcast  
Wind Chill: 35°   Ceiling: 700
Heat Index: 40°   Visibility: 4mi
Dew Point: 40°   Wind: 7mph
Humidity: 99%   Direction: 60°ENE
Pressure: 30.22"   Gusts: NA
Location:  33.4703°N, 94.6281°W
Report Text: KOSA 180535Z AUTO 06006KT 4SM OVC007 04/04 A3022 RMK AO1 T00430042
Loading
Personal Weather Stations






























Interactive Weather Map New forecast layout! Learn more

10-Day Weather Forecast

Advertisements
Track Severe Weather on mobile